sensor_id;sensor_type;location;lat;lon;timestamp;P1;durP1;ratioP1;P2;durP2;ratioP2
7330;SDS011;3706;49.198;7.064;2024-03-06T00:00:14;9.73;;;5.30;;
7330;SDS011;3706;49.198;7.064;2024-03-06T00:02:41;6.17;;;4.20;;
7330;SDS011;3706;49.198;7.064;2024-03-06T00:05:09;7.03;;;5.20;;
7330;SDS011;3706;49.198;7.064;2024-03-06T00:07:36;6.67;;;3.97;;
7330;SDS011;3706;49.198;7.064;2024-03-06T00:10:04;7.00;;;4.73;;
7330;SDS011;3706;49.198;7.064;2024-03-06T00:12:31;7.57;;;4.80;;
7330;SDS011;3706;49.198;7.064;2024-03-06T00:14:58;7.57;;;4.70;;
7330;SDS011;3706;49.198;7.064;2024-03-06T00:17:25;5.67;;;3.73;;
7330;SDS011;3706;49.198;7.064;2024-03-06T00:19:52;10.40;;;4.27;;
7330;SDS011;3706;49.198;7.064;2024-03-06T00:22:20;5.63;;;4.37;;
7330;SDS011;3706;49.198;7.064;2024-03-06T00:24:47;7.87;;;3.50;;
7330;SDS011;3706;49.198;7.064;2024-03-06T00:27:14;5.50;;;3.90;;
7330;SDS011;3706;49.198;7.064;2024-03-06T00:29:41;5.17;;;4.33;;
7330;SDS011;3706;49.198;7.064;2024-03-06T00:32:08;6.80;;;4.90;;
7330;SDS011;3706;49.198;7.064;2024-03-06T00:34:35;5.97;;;4.07;;
7330;SDS011;3706;49.198;7.064;2024-03-06T00:37:02;6.17;;;4.47;;
7330;SDS011;3706;49.198;7.064;2024-03-06T00:39:31;7.17;;;4.30;;
7330;SDS011;3706;49.198;7.064;2024-03-06T00:41:58;7.03;;;4.47;;
7330;SDS011;3706;49.198;7.064;2024-03-06T00:44:25;5.70;;;4.30;;
7330;SDS011;3706;49.198;7.064;2024-03-06T00:46:52;8.37;;;5.10;;
7330;SDS011;3706;49.198;7.064;2024-03-06T00:49:18;6.90;;;4.00;;
7330;SDS011;3706;49.198;7.064;2024-03-06T00:51:45;6.30;;;4.47;;
7330;SDS011;3706;49.198;7.064;2024-03-06T00:54:12;3.97;;;3.27;;
7330;SDS011;3706;49.198;7.064;2024-03-06T00:56:41;8.97;;;4.20;;
7330;SDS011;3706;49.198;7.064;2024-03-06T00:59:08;5.93;;;3.67;;
7330;SDS011;3706;49.198;7.064;2024-03-06T01:01:35;8.73;;;5.20;;
7330;SDS011;3706;49.198;7.064;2024-03-06T01:04:03;8.87;;;4.30;;
7330;SDS011;3706;49.198;7.064;2024-03-06T01:06:30;6.50;;;4.60;;
7330;SDS011;3706;49.198;7.064;2024-03-06T01:08:57;6.53;;;4.93;;
7330;SDS011;3706;49.198;7.064;2024-03-06T01:11:24;7.50;;;4.03;;
7330;SDS011;3706;49.198;7.064;2024-03-06T01:13:53;5.10;;;3.67;;
7330;SDS011;3706;49.198;7.064;2024-03-06T01:16:20;7.20;;;4.07;;
7330;SDS011;3706;49.198;7.064;2024-03-06T01:18:47;5.53;;;4.00;;
7330;SDS011;3706;49.198;7.064;2024-03-06T01:21:14;8.17;;;5.00;;
7330;SDS011;3706;49.198;7.064;2024-03-06T01:23:41;6.30;;;4.57;;
7330;SDS011;3706;49.198;7.064;2024-03-06T01:26:09;8.23;;;4.30;;
7330;SDS011;3706;49.198;7.064;2024-03-06T01:28:36;13.37;;;4.77;;
7330;SDS011;3706;49.198;7.064;2024-03-06T01:31:05;7.83;;;4.27;;
7330;SDS011;3706;49.198;7.064;2024-03-06T01:33:32;6.27;;;4.27;;
7330;SDS011;3706;49.198;7.064;2024-03-06T01:35:59;5.43;;;3.60;;
7330;SDS011;3706;49.198;7.064;2024-03-06T01:38:26;9.23;;;5.10;;
7330;SDS011;3706;49.198;7.064;2024-03-06T01:40:53;7.50;;;5.30;;
7330;SDS011;3706;49.198;7.064;2024-03-06T01:43:21;5.03;;;4.00;;
7330;SDS011;3706;49.198;7.064;2024-03-06T01:45:49;7.33;;;4.60;;
7330;SDS011;3706;49.198;7.064;2024-03-06T01:48:19;9.90;;;5.10;;
7330;SDS011;3706;49.198;7.064;2024-03-06T01:50:47;8.07;;;5.33;;
7330;SDS011;3706;49.198;7.064;2024-03-06T01:53:15;9.43;;;5.50;;
7330;SDS011;3706;49.198;7.064;2024-03-06T01:55:44;5.30;;;4.00;;
7330;SDS011;3706;49.198;7.064;2024-03-06T01:58:12;6.80;;;4.87;;
7330;SDS011;3706;49.198;7.064;2024-03-06T02:00:39;6.77;;;4.43;;
7330;SDS011;3706;49.198;7.064;2024-03-06T02:03:06;9.50;;;5.23;;
7330;SDS011;3706;49.198;7.064;2024-03-06T02:05:35;7.60;;;4.90;;
7330;SDS011;3706;49.198;7.064;2024-03-06T02:08:02;7.63;;;5.43;;
7330;SDS011;3706;49.198;7.064;2024-03-06T02:10:30;4.97;;;3.80;;
7330;SDS011;3706;49.198;7.064;2024-03-06T02:12:58;8.87;;;5.87;;
7330;SDS011;3706;49.198;7.064;2024-03-06T02:15:25;7.57;;;5.00;;
7330;SDS011;3706;49.198;7.064;2024-03-06T02:17:52;6.30;;;4.30;;
7330;SDS011;3706;49.198;7.064;2024-03-06T02:20:22;6.87;;;4.30;;
7330;SDS011;3706;49.198;7.064;2024-03-06T02:22:49;8.67;;;5.53;;
7330;SDS011;3706;49.198;7.064;2024-03-06T02:25:16;7.43;;;4.83;;
7330;SDS011;3706;49.198;7.064;2024-03-06T02:27:44;8.77;;;4.30;;
7330;SDS011;3706;49.198;7.064;2024-03-06T02:30:13;7.33;;;4.63;;
7330;SDS011;3706;49.198;7.064;2024-03-06T02:32:40;6.23;;;4.53;;
7330;SDS011;3706;49.198;7.064;2024-03-06T02:35:08;7.80;;;4.93;;
7330;SDS011;3706;49.198;7.064;2024-03-06T02:37:37;7.67;;;4.70;;
7330;SDS011;3706;49.198;7.064;2024-03-06T02:40:04;9.20;;;5.47;;
7330;SDS011;3706;49.198;7.064;2024-03-06T02:42:35;7.23;;;4.87;;
7330;SDS011;3706;49.198;7.064;2024-03-06T02:45:04;6.87;;;5.20;;
7330;SDS011;3706;49.198;7.064;2024-03-06T02:47:31;9.30;;;5.47;;
7330;SDS011;3706;49.198;7.064;2024-03-06T02:49:58;8.37;;;5.83;;
7330;SDS011;3706;49.198;7.064;2024-03-06T02:52:25;8.60;;;5.20;;
7330;SDS011;3706;49.198;7.064;2024-03-06T02:54:54;8.60;;;4.90;;
7330;SDS011;3706;49.198;7.064;2024-03-06T02:57:21;7.83;;;4.93;;
7330;SDS011;3706;49.198;7.064;2024-03-06T02:59:48;8.37;;;5.03;;
7330;SDS011;3706;49.198;7.064;2024-03-06T03:02:15;7.73;;;5.13;;
7330;SDS011;3706;49.198;7.064;2024-03-06T03:04:42;8.43;;;5.40;;
7330;SDS011;3706;49.198;7.064;2024-03-06T03:07:09;6.67;;;4.93;;
7330;SDS011;3706;49.198;7.064;2024-03-06T03:09:37;10.10;;;4.87;;
7330;SDS011;3706;49.198;7.064;2024-03-06T03:12:05;8.67;;;4.80;;
7330;SDS011;3706;49.198;7.064;2024-03-06T03:14:32;7.73;;;4.87;;
7330;SDS011;3706;49.198;7.064;2024-03-06T03:16:59;6.97;;;4.03;;
7330;SDS011;3706;49.198;7.064;2024-03-06T03:19:27;9.67;;;5.57;;
7330;SDS011;3706;49.198;7.064;2024-03-06T03:21:54;7.77;;;5.27;;
7330;SDS011;3706;49.198;7.064;2024-03-06T03:24:21;9.13;;;5.30;;
7330;SDS011;3706;49.198;7.064;2024-03-06T03:26:49;6.87;;;5.17;;
7330;SDS011;3706;49.198;7.064;2024-03-06T03:29:19;9.00;;;5.70;;
7330;SDS011;3706;49.198;7.064;2024-03-06T03:31:46;8.10;;;5.17;;
7330;SDS011;3706;49.198;7.064;2024-03-06T03:34:13;7.70;;;5.27;;
7330;SDS011;3706;49.198;7.064;2024-03-06T03:36:40;8.60;;;5.10;;
7330;SDS011;3706;49.198;7.064;2024-03-06T03:39:07;9.97;;;5.50;;
7330;SDS011;3706;49.198;7.064;2024-03-06T03:41:42;14.40;;;5.60;;
7330;SDS011;3706;49.198;7.064;2024-03-06T03:44:11;6.87;;;4.87;;
7330;SDS011;3706;49.198;7.064;2024-03-06T03:46:39;9.23;;;5.73;;
7330;SDS011;3706;49.198;7.064;2024-03-06T03:49:06;8.23;;;6.03;;
7330;SDS011;3706;49.198;7.064;2024-03-06T03:51:33;6.70;;;4.97;;
7330;SDS011;3706;49.198;7.064;2024-03-06T03:54:00;8.10;;;5.80;;
7330;SDS011;3706;49.198;7.064;2024-03-06T03:56:27;8.27;;;5.63;;
7330;SDS011;3706;49.198;7.064;2024-03-06T03:58:55;7.57;;;5.03;;
7330;SDS011;3706;49.198;7.064;2024-03-06T04:01:22;6.70;;;5.43;;
7330;SDS011;3706;49.198;7.064;2024-03-06T04:03:51;6.27;;;4.67;;
7330;SDS011;3706;49.198;7.064;2024-03-06T04:06:18;8.07;;;4.97;;
7330;SDS011;3706;49.198;7.064;2024-03-06T04:08:45;7.77;;;5.10;;
7330;SDS011;3706;49.198;7.064;2024-03-06T04:11:12;6.63;;;4.83;;
7330;SDS011;3706;49.198;7.064;2024-03-06T04:13:39;7.47;;;4.97;;
7330;SDS011;3706;49.198;7.064;2024-03-06T04:16:06;7.27;;;5.07;;
7330;SDS011;3706;49.198;7.064;2024-03-06T04:18:33;6.80;;;4.70;;
7330;SDS011;3706;49.198;7.064;2024-03-06T04:21:03;6.07;;;4.53;;
7330;SDS011;3706;49.198;7.064;2024-03-06T04:23:31;8.57;;;5.67;;
7330;SDS011;3706;49.198;7.064;2024-03-06T04:25:59;7.00;;;4.63;;
7330;SDS011;3706;49.198;7.064;2024-03-06T04:28:26;7.83;;;4.87;;
7330;SDS011;3706;49.198;7.064;2024-03-06T04:30:53;8.57;;;4.87;;
7330;SDS011;3706;49.198;7.064;2024-03-06T04:33:20;9.73;;;5.93;;
7330;SDS011;3706;49.198;7.064;2024-03-06T04:35:47;8.07;;;5.13;;
7330;SDS011;3706;49.198;7.064;2024-03-06T04:38:16;8.40;;;5.07;;
7330;SDS011;3706;49.198;7.064;2024-03-06T04:40:43;9.03;;;5.80;;
7330;SDS011;3706;49.198;7.064;2024-03-06T04:43:10;11.17;;;5.73;;
7330;SDS011;3706;49.198;7.064;2024-03-06T04:45:37;7.97;;;5.37;;
7330;SDS011;3706;49.198;7.064;2024-03-06T04:48:04;8.93;;;6.03;;
7330;SDS011;3706;49.198;7.064;2024-03-06T04:50:32;8.73;;;5.77;;
7330;SDS011;3706;49.198;7.064;2024-03-06T04:52:59;10.37;;;6.20;;
7330;SDS011;3706;49.198;7.064;2024-03-06T04:55:27;10.40;;;6.47;;
7330;SDS011;3706;49.198;7.064;2024-03-06T04:57:56;11.13;;;6.30;;
7330;SDS011;3706;49.198;7.064;2024-03-06T05:00:23;10.23;;;6.20;;
7330;SDS011;3706;49.198;7.064;2024-03-06T05:02:50;16.00;;;7.27;;
7330;SDS011;3706;49.198;7.064;2024-03-06T05:05:17;12.47;;;6.90;;
7330;SDS011;3706;49.198;7.064;2024-03-06T05:07:44;18.47;;;7.13;;
7330;SDS011;3706;49.198;7.064;2024-03-06T05:10:11;9.23;;;5.43;;
7330;SDS011;3706;49.198;7.064;2024-03-06T05:12:39;12.23;;;6.70;;
7330;SDS011;3706;49.198;7.064;2024-03-06T05:15:07;14.97;;;6.70;;
7330;SDS011;3706;49.198;7.064;2024-03-06T05:17:34;16.53;;;7.13;;
7330;SDS011;3706;49.198;7.064;2024-03-06T05:20:01;17.00;;;7.30;;
7330;SDS011;3706;49.198;7.064;2024-03-06T05:22:29;15.43;;;5.97;;
7330;SDS011;3706;49.198;7.064;2024-03-06T05:24:56;34.40;;;7.70;;
7330;SDS011;3706;49.198;7.064;2024-03-06T05:27:23;16.27;;;6.07;;
7330;SDS011;3706;49.198;7.064;2024-03-06T05:29:52;20.77;;;6.27;;
7330;SDS011;3706;49.198;7.064;2024-03-06T05:32:19;23.00;;;7.20;;
7330;SDS011;3706;49.198;7.064;2024-03-06T05:34:46;31.20;;;8.60;;
7330;SDS011;3706;49.198;7.064;2024-03-06T05:37:13;22.80;;;7.60;;
7330;SDS011;3706;49.198;7.064;2024-03-06T05:39:40;49.47;;;10.03;;
7330;SDS011;3706;49.198;7.064;2024-03-06T05:42:07;62.53;;;10.13;;
7330;SDS011;3706;49.198;7.064;2024-03-06T05:44:35;28.10;;;8.17;;
7330;SDS011;3706;49.198;7.064;2024-03-06T05:47:03;23.33;;;6.73;;
7330;SDS011;3706;49.198;7.064;2024-03-06T05:49:31;15.83;;;6.87;;
7330;SDS011;3706;49.198;7.064;2024-03-06T05:51:59;11.77;;;6.43;;
7330;SDS011;3706;49.198;7.064;2024-03-06T05:54:27;21.40;;;9.13;;
7330;SDS011;3706;49.198;7.064;2024-03-06T05:56:58;18.93;;;7.53;;
7330;SDS011;3706;49.198;7.064;2024-03-06T05:59:25;10.63;;;6.10;;
7330;SDS011;3706;49.198;7.064;2024-03-06T06:01:54;11.33;;;5.60;;
7330;SDS011;3706;49.198;7.064;2024-03-06T06:04:22;11.43;;;6.67;;
7330;SDS011;3706;49.198;7.064;2024-03-06T06:06:49;14.93;;;6.73;;
7330;SDS011;3706;49.198;7.064;2024-03-06T06:09:16;17.57;;;7.57;;
7330;SDS011;3706;49.198;7.064;2024-03-06T06:11:43;21.87;;;8.13;;
7330;SDS011;3706;49.198;7.064;2024-03-06T06:14:10;15.67;;;8.33;;
7330;SDS011;3706;49.198;7.064;2024-03-06T06:16:37;14.53;;;7.23;;
7330;SDS011;3706;49.198;7.064;2024-03-06T06:19:06;16.20;;;8.50;;
7330;SDS011;3706;49.198;7.064;2024-03-06T06:21:34;16.83;;;8.57;;
7330;SDS011;3706;49.198;7.064;2024-03-06T06:24:02;16.87;;;8.80;;
7330;SDS011;3706;49.198;7.064;2024-03-06T06:26:30;14.00;;;8.03;;
7330;SDS011;3706;49.198;7.064;2024-03-06T06:28:57;16.00;;;7.63;;
7330;SDS011;3706;49.198;7.064;2024-03-06T06:31:24;15.87;;;8.97;;
7330;SDS011;3706;49.198;7.064;2024-03-06T06:33:52;19.07;;;9.83;;
7330;SDS011;3706;49.198;7.064;2024-03-06T06:36:19;14.80;;;8.97;;
7330;SDS011;3706;49.198;7.064;2024-03-06T06:38:47;16.73;;;10.00;;
7330;SDS011;3706;49.198;7.064;2024-03-06T06:41:15;15.53;;;8.97;;
7330;SDS011;3706;49.198;7.064;2024-03-06T06:43:44;17.47;;;8.40;;
7330;SDS011;3706;49.198;7.064;2024-03-06T06:46:11;16.37;;;8.80;;
7330;SDS011;3706;49.198;7.064;2024-03-06T06:48:38;16.63;;;8.90;;
7330;SDS011;3706;49.198;7.064;2024-03-06T06:51:05;14.57;;;8.70;;
7330;SDS011;3706;49.198;7.064;2024-03-06T06:53:32;13.57;;;8.30;;
7330;SDS011;3706;49.198;7.064;2024-03-06T06:56:00;11.53;;;6.87;;
7330;SDS011;3706;49.198;7.064;2024-03-06T06:58:27;12.23;;;7.23;;
7330;SDS011;3706;49.198;7.064;2024-03-06T07:00:54;14.73;;;9.30;;
7330;SDS011;3706;49.198;7.064;2024-03-06T07:03:21;14.37;;;8.20;;
7330;SDS011;3706;49.198;7.064;2024-03-06T07:05:54;13.13;;;9.13;;
7330;SDS011;3706;49.198;7.064;2024-03-06T07:08:21;13.93;;;9.03;;
7330;SDS011;3706;49.198;7.064;2024-03-06T07:10:48;11.20;;;7.57;;
7330;SDS011;3706;49.198;7.064;2024-03-06T07:13:17;14.43;;;9.10;;
7330;SDS011;3706;49.198;7.064;2024-03-06T07:15:44;14.23;;;8.10;;
7330;SDS011;3706;49.198;7.064;2024-03-06T07:18:11;15.87;;;10.70;;
7330;SDS011;3706;49.198;7.064;2024-03-06T07:20:39;14.37;;;9.87;;
7330;SDS011;3706;49.198;7.064;2024-03-06T07:23:06;11.87;;;8.33;;
7330;SDS011;3706;49.198;7.064;2024-03-06T07:25:33;12.40;;;9.17;;
7330;SDS011;3706;49.198;7.064;2024-03-06T07:28:01;12.17;;;9.13;;
7330;SDS011;3706;49.198;7.064;2024-03-06T07:30:30;10.27;;;7.97;;
7330;SDS011;3706;49.198;7.064;2024-03-06T07:32:57;9.03;;;6.60;;
7330;SDS011;3706;49.198;7.064;2024-03-06T07:35:24;11.63;;;7.47;;
7330;SDS011;3706;49.198;7.064;2024-03-06T07:37:51;6.70;;;5.07;;
7330;SDS011;3706;49.198;7.064;2024-03-06T07:40:18;7.27;;;5.23;;
7330;SDS011;3706;49.198;7.064;2024-03-06T07:42:45;8.90;;;6.60;;
7330;SDS011;3706;49.198;7.064;2024-03-06T07:45:12;7.27;;;5.73;;
7330;SDS011;3706;49.198;7.064;2024-03-06T07:47:40;9.43;;;5.90;;
7330;SDS011;3706;49.198;7.064;2024-03-06T07:50:08;9.90;;;6.43;;
7330;SDS011;3706;49.198;7.064;2024-03-06T07:52:36;8.50;;;6.03;;
7330;SDS011;3706;49.198;7.064;2024-03-06T07:55:03;6.17;;;5.37;;
7330;SDS011;3706;49.198;7.064;2024-03-06T07:57:31;11.27;;;8.03;;
7330;SDS011;3706;49.198;7.064;2024-03-06T07:59:58;10.10;;;6.90;;
7330;SDS011;3706;49.198;7.064;2024-03-06T08:02:25;10.43;;;7.97;;
7330;SDS011;3706;49.198;7.064;2024-03-06T08:04:54;9.90;;;6.90;;
7330;SDS011;3706;49.198;7.064;2024-03-06T08:07:21;9.37;;;7.20;;
7330;SDS011;3706;49.198;7.064;2024-03-06T08:09:48;9.27;;;7.27;;
7330;SDS011;3706;49.198;7.064;2024-03-06T08:12:15;9.23;;;7.03;;
7330;SDS011;3706;49.198;7.064;2024-03-06T08:14:42;9.03;;;7.33;;
7330;SDS011;3706;49.198;7.064;2024-03-06T08:17:10;5.43;;;3.80;;
7330;SDS011;3706;49.198;7.064;2024-03-06T08:19:37;6.37;;;5.23;;
7330;SDS011;3706;49.198;7.064;2024-03-06T08:22:05;5.97;;;4.33;;
7330;SDS011;3706;49.198;7.064;2024-03-06T08:24:32;5.73;;;5.03;;
7330;SDS011;3706;49.198;7.064;2024-03-06T08:26:59;6.43;;;5.80;;
7330;SDS011;3706;49.198;7.064;2024-03-06T08:29:27;6.97;;;5.87;;
7330;SDS011;3706;49.198;7.064;2024-03-06T08:31:54;5.67;;;4.53;;
7330;SDS011;3706;49.198;7.064;2024-03-06T08:34:23;5.27;;;4.87;;
7330;SDS011;3706;49.198;7.064;2024-03-06T08:36:50;4.00;;;3.60;;
7330;SDS011;3706;49.198;7.064;2024-03-06T08:39:19;4.53;;;3.80;;
7330;SDS011;3706;49.198;7.064;2024-03-06T08:41:46;4.33;;;3.93;;
7330;SDS011;3706;49.198;7.064;2024-03-06T08:44:13;4.00;;;3.60;;
7330;SDS011;3706;49.198;7.064;2024-03-06T08:46:40;5.30;;;4.20;;
7330;SDS011;3706;49.198;7.064;2024-03-06T08:49:08;4.93;;;4.30;;
7330;SDS011;3706;49.198;7.064;2024-03-06T08:51:36;5.17;;;4.07;;
7330;SDS011;3706;49.198;7.064;2024-03-06T08:54:03;4.93;;;4.43;;
7330;SDS011;3706;49.198;7.064;2024-03-06T08:56:31;5.53;;;4.43;;
7330;SDS011;3706;49.198;7.064;2024-03-06T08:58:59;8.30;;;4.60;;
7330;SDS011;3706;49.198;7.064;2024-03-06T09:01:27;7.57;;;4.70;;
7330;SDS011;3706;49.198;7.064;2024-03-06T09:03:54;7.37;;;4.70;;
7330;SDS011;3706;49.198;7.064;2024-03-06T09:06:22;8.43;;;4.50;;
7330;SDS011;3706;49.198;7.064;2024-03-06T09:08:49;5.40;;;4.30;;
7330;SDS011;3706;49.198;7.064;2024-03-06T09:11:16;8.27;;;5.20;;
7330;SDS011;3706;49.198;7.064;2024-03-06T09:13:44;6.70;;;4.43;;
7330;SDS011;3706;49.198;7.064;2024-03-06T09:16:11;6.43;;;3.97;;
7330;SDS011;3706;49.198;7.064;2024-03-06T09:18:38;6.47;;;3.90;;
7330;SDS011;3706;49.198;7.064;2024-03-06T09:21:05;6.23;;;3.73;;
7330;SDS011;3706;49.198;7.064;2024-03-06T09:23:32;4.37;;;3.60;;
7330;SDS011;3706;49.198;7.064;2024-03-06T09:25:59;5.60;;;3.83;;
7330;SDS011;3706;49.198;7.064;2024-03-06T09:28:26;7.33;;;3.97;;
7330;SDS011;3706;49.198;7.064;2024-03-06T09:30:54;6.33;;;4.13;;
7330;SDS011;3706;49.198;7.064;2024-03-06T09:33:22;5.13;;;3.70;;
7330;SDS011;3706;49.198;7.064;2024-03-06T09:35:49;9.30;;;3.77;;
7330;SDS011;3706;49.198;7.064;2024-03-06T09:38:16;5.50;;;3.70;;
7330;SDS011;3706;49.198;7.064;2024-03-06T09:40:42;6.93;;;4.30;;
7330;SDS011;3706;49.198;7.064;2024-03-06T09:43:11;7.33;;;4.10;;
7330;SDS011;3706;49.198;7.064;2024-03-06T09:45:38;6.73;;;3.37;;
7330;SDS011;3706;49.198;7.064;2024-03-06T09:48:07;5.47;;;4.27;;
7330;SDS011;3706;49.198;7.064;2024-03-06T09:50:35;6.63;;;3.57;;
7330;SDS011;3706;49.198;7.064;2024-03-06T09:53:06;6.33;;;3.67;;
7330;SDS011;3706;49.198;7.064;2024-03-06T09:55:36;4.40;;;3.33;;
7330;SDS011;3706;49.198;7.064;2024-03-06T09:58:04;5.20;;;4.13;;
7330;SDS011;3706;49.198;7.064;2024-03-06T10:00:31;8.00;;;3.70;;
7330;SDS011;3706;49.198;7.064;2024-03-06T10:02:59;5.17;;;4.00;;
7330;SDS011;3706;49.198;7.064;2024-03-06T10:05:29;5.03;;;3.70;;
7330;SDS011;3706;49.198;7.064;2024-03-06T10:07:58;10.20;;;4.40;;
7330;SDS011;3706;49.198;7.064;2024-03-06T10:10:26;7.73;;;4.70;;
7330;SDS011;3706;49.198;7.064;2024-03-06T10:12:53;8.47;;;5.17;;
7330;SDS011;3706;49.198;7.064;2024-03-06T10:15:22;8.87;;;5.03;;
7330;SDS011;3706;49.198;7.064;2024-03-06T10:17:51;11.37;;;5.13;;
7330;SDS011;3706;49.198;7.064;2024-03-06T10:20:18;7.47;;;4.30;;
7330;SDS011;3706;49.198;7.064;2024-03-06T10:22:48;11.13;;;4.50;;
7330;SDS011;3706;49.198;7.064;2024-03-06T10:25:18;6.60;;;4.90;;
7330;SDS011;3706;49.198;7.064;2024-03-06T10:27:46;9.13;;;4.50;;
7330;SDS011;3706;49.198;7.064;2024-03-06T10:30:26;9.23;;;4.73;;
7330;SDS011;3706;49.198;7.064;2024-03-06T10:32:53;8.57;;;4.67;;
7330;SDS011;3706;49.198;7.064;2024-03-06T10:35:21;6.17;;;4.20;;
7330;SDS011;3706;49.198;7.064;2024-03-06T10:37:51;9.03;;;4.73;;
7330;SDS011;3706;49.198;7.064;2024-03-06T10:40:20;7.13;;;4.77;;
7330;SDS011;3706;49.198;7.064;2024-03-06T10:42:49;9.17;;;4.90;;
7330;SDS011;3706;49.198;7.064;2024-03-06T10:45:17;6.90;;;4.30;;
7330;SDS011;3706;49.198;7.064;2024-03-06T10:47:47;16.40;;;4.43;;
7330;SDS011;3706;49.198;7.064;2024-03-06T10:50:15;7.73;;;4.50;;
7330;SDS011;3706;49.198;7.064;2024-03-06T10:52:43;8.27;;;4.80;;
7330;SDS011;3706;49.198;7.064;2024-03-06T10:55:14;10.53;;;4.80;;
7330;SDS011;3706;49.198;7.064;2024-03-06T10:57:42;7.07;;;4.57;;
7330;SDS011;3706;49.198;7.064;2024-03-06T11:00:10;8.50;;;4.77;;
7330;SDS011;3706;49.198;7.064;2024-03-06T11:02:42;7.23;;;4.33;;
7330;SDS011;3706;49.198;7.064;2024-03-06T11:05:13;8.70;;;3.97;;
7330;SDS011;3706;49.198;7.064;2024-03-06T11:07:40;6.57;;;3.70;;
7330;SDS011;3706;49.198;7.064;2024-03-06T11:10:09;6.93;;;3.53;;
7330;SDS011;3706;49.198;7.064;2024-03-06T11:12:42;6.97;;;3.97;;
7330;SDS011;3706;49.198;7.064;2024-03-06T11:15:13;6.20;;;3.67;;
7330;SDS011;3706;49.198;7.064;2024-03-06T11:17:40;6.47;;;3.53;;
7330;SDS011;3706;49.198;7.064;2024-03-06T11:20:08;7.63;;;4.23;;
7330;SDS011;3706;49.198;7.064;2024-03-06T11:28:31;6.30;;;3.93;;
7330;SDS011;3706;49.198;7.064;2024-03-06T11:30:59;8.23;;;4.03;;
7330;SDS011;3706;49.198;7.064;2024-03-06T11:33:36;5.93;;;4.20;;
7330;SDS011;3706;49.198;7.064;2024-03-06T11:38:51;5.47;;;3.23;;
7330;SDS011;3706;49.198;7.064;2024-03-06T11:41:19;5.00;;;3.10;;
7330;SDS011;3706;49.198;7.064;2024-03-06T11:43:49;5.50;;;3.30;;
7330;SDS011;3706;49.198;7.064;2024-03-06T11:46:18;5.30;;;3.00;;
7330;SDS011;3706;49.198;7.064;2024-03-06T11:48:51;5.63;;;3.00;;
7330;SDS011;3706;49.198;7.064;2024-03-06T11:51:19;4.80;;;3.20;;
7330;SDS011;3706;49.198;7.064;2024-03-06T11:53:49;4.73;;;2.73;;
7330;SDS011;3706;49.198;7.064;2024-03-06T11:56:17;4.87;;;2.80;;
7330;SDS011;3706;49.198;7.064;2024-03-06T11:58:45;4.90;;;2.67;;
7330;SDS011;3706;49.198;7.064;2024-03-06T12:01:14;4.93;;;2.43;;
7330;SDS011;3706;49.198;7.064;2024-03-06T12:03:41;4.97;;;2.90;;
7330;SDS011;3706;49.198;7.064;2024-03-06T12:06:09;5.70;;;2.80;;
7330;SDS011;3706;49.198;7.064;2024-03-06T12:08:38;5.50;;;2.60;;
7330;SDS011;3706;49.198;7.064;2024-03-06T12:11:05;4.53;;;2.60;;
7330;SDS011;3706;49.198;7.064;2024-03-06T12:13:32;6.20;;;2.43;;
7330;SDS011;3706;49.198;7.064;2024-03-06T12:16:03;5.23;;;2.20;;
7330;SDS011;3706;49.198;7.064;2024-03-06T12:18:33;6.30;;;2.40;;
7330;SDS011;3706;49.198;7.064;2024-03-06T12:21:01;3.50;;;1.73;;
7330;SDS011;3706;49.198;7.064;2024-03-06T12:23:29;5.00;;;1.90;;
7330;SDS011;3706;49.198;7.064;2024-03-06T12:26:02;4.50;;;2.13;;
7330;SDS011;3706;49.198;7.064;2024-03-06T12:28:30;6.17;;;1.77;;
7330;SDS011;3706;49.198;7.064;2024-03-06T12:30:57;2.57;;;2.03;;
7330;SDS011;3706;49.198;7.064;2024-03-06T12:33:26;3.77;;;2.00;;
7330;SDS011;3706;49.198;7.064;2024-03-06T12:36:01;3.80;;;2.40;;
7330;SDS011;3706;49.198;7.064;2024-03-06T12:38:29;4.23;;;2.03;;
7330;SDS011;3706;49.198;7.064;2024-03-06T12:40:57;4.73;;;1.93;;
7330;SDS011;3706;49.198;7.064;2024-03-06T12:43:24;4.13;;;1.97;;
7330;SDS011;3706;49.198;7.064;2024-03-06T12:45:51;4.33;;;2.30;;
7330;SDS011;3706;49.198;7.064;2024-03-06T12:48:20;4.03;;;2.50;;
7330;SDS011;3706;49.198;7.064;2024-03-06T12:50:47;5.13;;;2.37;;
7330;SDS011;3706;49.198;7.064;2024-03-06T12:53:18;4.00;;;2.37;;
7330;SDS011;3706;49.198;7.064;2024-03-06T12:55:46;5.40;;;2.40;;
7330;SDS011;3706;49.198;7.064;2024-03-06T12:58:13;5.57;;;2.30;;
7330;SDS011;3706;49.198;7.064;2024-03-06T13:00:40;8.37;;;3.63;;
7330;SDS011;3706;49.198;7.064;2024-03-06T13:03:07;7.27;;;3.27;;
7330;SDS011;3706;49.198;7.064;2024-03-06T13:05:35;4.93;;;3.37;;
7330;SDS011;3706;49.198;7.064;2024-03-06T13:08:02;3.87;;;2.70;;
7330;SDS011;3706;49.198;7.064;2024-03-06T13:10:31;6.10;;;3.33;;
7330;SDS011;3706;49.198;7.064;2024-03-06T13:12:58;6.97;;;3.17;;
7330;SDS011;3706;49.198;7.064;2024-03-06T13:15:25;6.47;;;3.40;;
7330;SDS011;3706;49.198;7.064;2024-03-06T13:17:52;6.80;;;3.60;;
7330;SDS011;3706;49.198;7.064;2024-03-06T13:20:19;6.67;;;3.70;;
7330;SDS011;3706;49.198;7.064;2024-03-06T13:22:46;8.30;;;3.60;;
7330;SDS011;3706;49.198;7.064;2024-03-06T13:25:13;8.10;;;4.27;;
7330;SDS011;3706;49.198;7.064;2024-03-06T13:27:41;9.93;;;4.93;;
7330;SDS011;3706;49.198;7.064;2024-03-06T13:30:08;6.77;;;4.13;;
7330;SDS011;3706;49.198;7.064;2024-03-06T13:32:37;5.13;;;3.10;;
7330;SDS011;3706;49.198;7.064;2024-03-06T13:35:04;7.07;;;3.90;;
7330;SDS011;3706;49.198;7.064;2024-03-06T13:37:37;6.90;;;3.93;;
7330;SDS011;3706;49.198;7.064;2024-03-06T13:40:04;5.63;;;3.17;;
7330;SDS011;3706;49.198;7.064;2024-03-06T13:42:33;5.93;;;4.27;;
7330;SDS011;3706;49.198;7.064;2024-03-06T13:45:02;6.67;;;2.97;;
7330;SDS011;3706;49.198;7.064;2024-03-06T13:47:30;5.73;;;2.90;;
7330;SDS011;3706;49.198;7.064;2024-03-06T13:49:57;5.50;;;3.33;;
7330;SDS011;3706;49.198;7.064;2024-03-06T13:52:24;6.00;;;2.97;;
7330;SDS011;3706;49.198;7.064;2024-03-06T13:54:51;4.70;;;2.80;;
7330;SDS011;3706;49.198;7.064;2024-03-06T13:57:18;6.73;;;3.03;;
7330;SDS011;3706;49.198;7.064;2024-03-06T13:59:45;6.53;;;3.20;;
7330;SDS011;3706;49.198;7.064;2024-03-06T14:02:14;7.10;;;3.37;;
7330;SDS011;3706;49.198;7.064;2024-03-06T14:04:41;5.87;;;3.03;;
7330;SDS011;3706;49.198;7.064;2024-03-06T14:07:08;4.23;;;2.60;;
7330;SDS011;3706;49.198;7.064;2024-03-06T14:09:36;5.63;;;3.17;;
7330;SDS011;3706;49.198;7.064;2024-03-06T14:12:03;5.80;;;2.70;;
7330;SDS011;3706;49.198;7.064;2024-03-06T14:14:30;4.40;;;2.07;;
7330;SDS011;3706;49.198;7.064;2024-03-06T14:16:57;7.07;;;2.57;;
7330;SDS011;3706;49.198;7.064;2024-03-06T14:19:26;6.20;;;2.60;;
7330;SDS011;3706;49.198;7.064;2024-03-06T14:21:53;4.37;;;2.73;;
7330;SDS011;3706;49.198;7.064;2024-03-06T14:24:20;6.13;;;2.80;;
7330;SDS011;3706;49.198;7.064;2024-03-06T14:26:47;5.20;;;2.40;;
7330;SDS011;3706;49.198;7.064;2024-03-06T14:29:15;5.87;;;2.40;;
7330;SDS011;3706;49.198;7.064;2024-03-06T14:31:42;6.20;;;2.33;;
7330;SDS011;3706;49.198;7.064;2024-03-06T14:34:09;3.30;;;2.07;;
7330;SDS011;3706;49.198;7.064;2024-03-06T14:36:38;4.67;;;2.13;;
7330;SDS011;3706;49.198;7.064;2024-03-06T14:39:07;3.37;;;2.27;;
7330;SDS011;3706;49.198;7.064;2024-03-06T14:41:35;4.90;;;2.30;;
7330;SDS011;3706;49.198;7.064;2024-03-06T14:44:02;5.40;;;2.20;;
7330;SDS011;3706;49.198;7.064;2024-03-06T14:46:29;4.80;;;2.53;;
7330;SDS011;3706;49.198;7.064;2024-03-06T14:48:56;5.90;;;2.63;;
7330;SDS011;3706;49.198;7.064;2024-03-06T14:51:23;6.67;;;2.60;;
7330;SDS011;3706;49.198;7.064;2024-03-06T14:53:51;4.30;;;2.10;;
7330;SDS011;3706;49.198;7.064;2024-03-06T14:56:18;5.10;;;2.23;;
7330;SDS011;3706;49.198;7.064;2024-03-06T14:58:46;3.40;;;2.47;;
7330;SDS011;3706;49.198;7.064;2024-03-06T15:01:13;4.93;;;2.07;;
7330;SDS011;3706;49.198;7.064;2024-03-06T15:03:40;4.23;;;2.07;;
7330;SDS011;3706;49.198;7.064;2024-03-06T15:06:07;4.40;;;2.03;;
7330;SDS011;3706;49.198;7.064;2024-03-06T15:08:36;3.63;;;2.10;;
7330;SDS011;3706;49.198;7.064;2024-03-06T15:11:04;4.87;;;2.40;;
7330;SDS011;3706;49.198;7.064;2024-03-06T15:13:32;4.17;;;2.07;;
7330;SDS011;3706;49.198;7.064;2024-03-06T15:15:59;5.73;;;2.20;;
7330;SDS011;3706;49.198;7.064;2024-03-06T15:18:29;3.43;;;2.00;;
7330;SDS011;3706;49.198;7.064;2024-03-06T15:20:56;3.53;;;1.90;;
7330;SDS011;3706;49.198;7.064;2024-03-06T15:23:23;3.37;;;2.00;;